createdAt,value
2023-03-05T00:01:58.272Z,12.85
2023-03-05T00:04:27.032Z,11.73
2023-03-05T00:06:55.900Z,9.27
2023-03-05T00:09:25.756Z,11.60
2023-03-05T00:11:54.340Z,12.05
2023-03-05T00:14:23.616Z,12.35
2023-03-05T00:16:52.072Z,12.38
2023-03-05T00:19:21.239Z,12.55
2023-03-05T00:21:49.787Z,10.35
2023-03-05T00:24:18.851Z,9.77
2023-03-05T00:26:47.760Z,11.93
2023-03-05T00:29:19.294Z,14.50
2023-03-05T00:31:48.718Z,13.38
2023-03-05T00:34:19.416Z,11.73
2023-03-05T00:36:50.743Z,10.55
2023-03-05T00:39:21.149Z,9.38
2023-03-05T00:41:50.226Z,11.82
2023-03-05T00:44:21.250Z,12.57
2023-03-05T00:46:50.152Z,13.48
2023-03-05T00:49:19.246Z,19.17
2023-03-05T00:51:48.039Z,12.98
2023-03-05T00:54:17.006Z,11.77
2023-03-05T00:56:45.449Z,12.57
2023-03-05T00:59:14.226Z,15.30
2023-03-05T01:01:43.603Z,12.13
2023-03-05T01:04:12.373Z,19.60
2023-03-05T01:06:44.964Z,14.13
2023-03-05T01:09:17.843Z,12.38
2023-03-05T01:11:46.115Z,12.00
2023-03-05T01:14:19.149Z,10.77
2023-03-05T01:16:48.260Z,12.15
2023-03-05T01:19:17.581Z,15.48
2023-03-05T01:21:47.187Z,14.02
2023-03-05T01:24:15.906Z,10.55
2023-03-05T01:26:44.847Z,9.52
2023-03-05T01:29:13.697Z,15.35
2023-03-05T01:31:42.167Z,16.30
2023-03-05T01:34:11.365Z,21.23
2023-03-05T01:36:42.224Z,13.27
2023-03-05T01:39:15.395Z,11.45
2023-03-05T01:41:43.754Z,15.40
2023-03-05T01:44:23.359Z,14.38
2023-03-05T01:46:51.879Z,13.43
2023-03-05T01:49:33.351Z,9.88
2023-03-05T01:52:20.538Z,13.15
2023-03-05T01:55:01.650Z,10.10
2023-03-05T01:57:42.820Z,12.00
2023-03-05T02:00:22.845Z,11.85
2023-03-05T02:02:54.975Z,9.43
2023-03-05T02:05:32.377Z,9.20
2023-03-05T02:08:04.739Z,8.27
2023-03-05T02:10:58.250Z,7.80
2023-03-05T02:13:31.919Z,6.63
2023-03-05T02:16:02.682Z,6.80
2023-03-05T02:18:33.445Z,10.93
2023-03-05T02:21:10.455Z,7.63
2023-03-05T02:23:39.778Z,7.78
2023-03-05T02:26:11.418Z,10.75
2023-03-05T02:28:56.297Z,9.55
2023-03-05T02:31:26.554Z,12.95
2023-03-05T02:33:56.388Z,9.30
2023-03-05T02:36:27.087Z,9.55
2023-03-05T02:38:57.341Z,5.60
2023-03-05T02:41:26.500Z,9.65
2023-03-05T02:43:57.154Z,5.13
2023-03-05T02:46:26.080Z,9.05
2023-03-05T02:48:54.673Z,8.68
2023-03-05T02:51:23.626Z,10.65
2023-03-05T02:53:54.102Z,5.50
2023-03-05T02:56:24.974Z,9.07
2023-03-05T02:58:55.028Z,7.68
2023-03-05T03:01:28.845Z,8.50
2023-03-05T03:03:58.264Z,7.30
2023-03-05T03:06:29.447Z,8.07
2023-03-05T03:09:00.670Z,6.63
2023-03-05T03:11:29.389Z,10.13
2023-03-05T03:14:00.943Z,10.65
2023-03-05T03:16:30.283Z,10.90
2023-03-05T03:18:58.702Z,8.55
2023-03-05T03:21:27.917Z,7.63
2023-03-05T03:23:56.536Z,6.85
2023-03-05T03:26:25.409Z,8.00
2023-03-05T03:28:54.978Z,7.72
2023-03-05T03:31:24.401Z,5.55
2023-03-05T03:33:53.274Z,5.65
2023-03-05T03:36:22.337Z,8.63
2023-03-05T03:38:50.923Z,12.93
2023-03-05T03:41:20.924Z,8.30
2023-03-05T03:43:49.210Z,7.03
2023-03-05T03:46:20.780Z,7.38
2023-03-05T03:51:35.334Z,8.30
2023-03-05T03:54:05.458Z,6.72
2023-03-05T03:56:36.892Z,7.88
2023-03-05T03:59:06.019Z,6.97
2023-03-05T04:01:35.234Z,7.22
2023-03-05T04:04:05.836Z,8.60
2023-03-05T04:06:35.252Z,8.27
2023-03-05T04:09:04.687Z,8.13
2023-03-05T04:11:33.514Z,8.38
2023-03-05T04:14:02.334Z,6.70
2023-03-05T04:16:31.567Z,8.13
2023-03-05T04:18:59.929Z,7.10
2023-03-05T04:21:29.769Z,6.43
2023-03-05T04:23:58.097Z,9.00
2023-03-05T04:26:27.206Z,7.05
2023-03-05T04:28:56.695Z,6.47
2023-03-05T04:31:25.492Z,5.45
2023-03-05T04:33:53.837Z,7.10
2023-03-05T04:36:22.857Z,7.38
2023-03-05T04:38:51.709Z,10.48
2023-03-05T04:41:21.247Z,9.07
2023-03-05T04:43:49.552Z,8.55
2023-03-05T04:46:18.306Z,7.25
2023-03-05T04:48:46.700Z,10.27
2023-03-05T04:51:16.078Z,6.82
2023-03-05T04:53:44.951Z,7.82
2023-03-05T04:56:13.784Z,6.40
2023-03-05T04:58:42.131Z,10.50
2023-03-05T05:01:10.999Z,7.63
2023-03-05T05:03:39.556Z,9.73
2023-03-05T05:06:08.700Z,6.70
2023-03-05T05:08:38.386Z,10.10
2023-03-05T05:11:08.466Z,8.23
2023-03-05T05:13:36.840Z,6.53
2023-03-05T05:16:09.181Z,8.50
2023-03-05T05:18:38.086Z,7.57
2023-03-05T05:21:12.001Z,9.98
2023-03-05T05:23:40.866Z,8.18
2023-03-05T05:26:09.809Z,8.75
2023-03-05T05:28:38.639Z,8.75
2023-03-05T05:31:08.332Z,10.40
2023-03-05T05:33:37.019Z,9.48
2023-03-05T05:36:08.383Z,9.27
2023-03-05T05:38:36.776Z,8.15
2023-03-05T05:41:08.195Z,10.30
2023-03-05T05:43:40.979Z,10.43
2023-03-05T05:46:14.269Z,8.50
2023-03-05T05:48:43.562Z,8.82
2023-03-05T05:51:18.275Z,8.88
2023-03-05T05:53:47.509Z,9.75
2023-03-05T05:56:17.098Z,10.05
2023-03-05T05:58:49.253Z,10.95
2023-03-05T06:01:23.372Z,8.32
2023-03-05T06:03:52.111Z,7.25
2023-03-05T06:06:22.907Z,8.15
2023-03-05T06:08:52.184Z,6.50
2023-03-05T06:11:21.447Z,6.20
2023-03-05T06:13:55.713Z,7.35
2023-03-05T06:16:26.787Z,8.18
2023-03-05T06:19:04.238Z,6.95
2023-03-05T06:21:41.195Z,8.50
2023-03-05T06:24:13.176Z,5.32
2023-03-05T06:26:46.976Z,4.18
2023-03-05T06:29:19.871Z,4.35
2023-03-05T06:31:49.114Z,7.43
2023-03-05T06:34:17.609Z,5.13
2023-03-05T06:36:46.735Z,6.65
2023-03-05T06:39:15.100Z,4.78
2023-03-05T06:41:45.895Z,3.85
2023-03-05T06:44:14.232Z,6.05
2023-03-05T06:46:42.895Z,3.47
2023-03-05T06:49:11.825Z,5.30
2023-03-05T06:51:40.920Z,7.70
2023-03-05T06:54:12.776Z,6.40
2023-03-05T06:56:46.291Z,6.10
2023-03-05T06:59:16.684Z,9.60
2023-03-05T07:01:46.364Z,7.72
2023-03-05T07:04:15.430Z,5.50
2023-03-05T07:06:44.459Z,6.40
2023-03-05T07:09:15.968Z,5.30
2023-03-05T07:11:44.602Z,8.13
2023-03-05T07:14:13.216Z,6.13
2023-03-05T07:16:42.084Z,7.78
2023-03-05T07:19:11.503Z,7.93
2023-03-05T07:21:40.385Z,8.15
2023-03-05T07:24:09.279Z,10.27
2023-03-05T07:26:38.198Z,6.85
2023-03-05T07:29:07.096Z,6.45
2023-03-05T07:31:38.020Z,7.35
2023-03-05T07:34:06.674Z,11.10
2023-03-05T07:36:35.343Z,11.27
2023-03-05T07:39:05.377Z,8.40
2023-03-05T07:41:33.723Z,10.52
2023-03-05T07:44:02.837Z,11.48
2023-03-05T07:46:33.817Z,11.07
2023-03-05T07:49:02.549Z,9.43
2023-03-05T07:51:31.140Z,12.15
2023-03-05T07:54:00.080Z,9.13
2023-03-05T07:56:35.514Z,8.10
2023-03-05T07:59:10.802Z,8.70
2023-03-05T08:01:39.910Z,9.73
2023-03-05T08:04:11.193Z,10.23
2023-03-05T08:06:41.190Z,8.00
2023-03-05T08:09:09.974Z,8.10
2023-03-05T08:11:40.131Z,5.85
2023-03-05T08:14:12.954Z,8.43
2023-03-05T08:16:47.256Z,8.68
2023-03-05T08:19:20.508Z,11.48
2023-03-05T08:21:48.798Z,6.18
2023-03-05T08:24:17.587Z,6.25
2023-03-05T08:26:46.130Z,7.32
2023-03-05T08:29:14.842Z,7.93
2023-03-05T08:31:47.397Z,7.72
2023-03-05T08:34:16.240Z,6.55
2023-03-05T08:36:44.500Z,4.72
2023-03-05T08:39:13.878Z,4.97
2023-03-05T08:41:42.273Z,8.43
2023-03-05T08:44:11.363Z,5.20
2023-03-05T08:46:41.135Z,7.43
2023-03-05T08:49:10.288Z,10.77
2023-03-05T08:51:39.108Z,7.55
2023-03-05T08:54:08.551Z,7.97
2023-03-05T08:56:37.246Z,6.50
2023-03-05T08:59:06.646Z,7.03
2023-03-05T09:01:35.053Z,5.93
2023-03-05T09:04:04.141Z,7.57
2023-03-05T09:06:34.533Z,9.02
2023-03-05T09:09:03.277Z,8.23
2023-03-05T09:11:36.335Z,6.85
2023-03-05T09:14:06.564Z,6.82
2023-03-05T09:16:36.535Z,8.63
2023-03-05T09:19:10.770Z,7.22
2023-03-05T09:21:39.050Z,7.95
2023-03-05T09:24:08.957Z,8.02
2023-03-05T09:26:37.348Z,5.75
2023-03-05T09:29:07.850Z,13.57
2023-03-05T09:31:37.197Z,8.80
2023-03-05T09:34:06.779Z,9.13
2023-03-05T09:36:40.507Z,8.98
2023-03-05T09:39:09.756Z,7.97
2023-03-05T09:41:56.256Z,6.68
2023-03-05T09:44:43.269Z,8.65
2023-03-05T09:47:25.512Z,5.47
2023-03-05T09:50:19.167Z,6.53
2023-03-05T09:52:55.819Z,8.95
2023-03-05T09:55:49.533Z,7.45
2023-03-05T09:58:42.885Z,3.45
2023-03-05T10:01:20.458Z,6.85
2023-03-05T10:04:00.252Z,5.07
2023-03-05T10:06:42.092Z,4.55
2023-03-05T10:09:10.475Z,9.48
2023-03-05T10:12:01.308Z,10.02
2023-03-05T10:14:33.371Z,4.25
2023-03-05T10:17:20.820Z,4.75
2023-03-05T10:20:30.054Z,4.88
2023-03-05T10:23:05.928Z,4.10
2023-03-05T10:26:25.760Z,6.53
2023-03-05T10:29:18.543Z,9.88
2023-03-05T10:36:11.421Z,11.88
2023-03-05T10:39:11.525Z,15.52
2023-03-05T10:42:09.586Z,12.05
2023-03-05T10:45:14.016Z,11.40
2023-03-05T10:49:02.463Z,7.72
2023-03-05T10:52:11.118Z,10.68
2023-03-05T10:54:43.014Z,16.95
2023-03-05T10:57:24.154Z,42.92
2023-03-05T11:00:32.658Z,25.45
2023-03-05T11:03:15.247Z,16.27
2023-03-05T11:06:12.503Z,6.15
2023-03-05T11:09:18.046Z,12.65
2023-03-05T11:12:19.092Z,12.18
2023-03-05T11:15:26.160Z,19.63
2023-03-05T11:18:18.413Z,16.25
2023-03-05T11:20:48.216Z,3.65
2023-03-05T11:23:48.013Z,4.63
2023-03-05T11:26:23.462Z,4.05
2023-03-05T11:28:55.879Z,7.72
2023-03-05T11:31:33.094Z,7.80
2023-03-05T11:34:36.074Z,8.23
2023-03-05T11:37:06.515Z,7.68
2023-03-05T11:39:38.456Z,9.40
2023-03-05T11:42:13.592Z,12.10
2023-03-05T11:44:49.376Z,7.63
2023-03-05T11:47:30.483Z,6.32
2023-03-05T11:50:17.157Z,5.97
2023-03-05T11:52:55.850Z,4.68
2023-03-05T11:55:33.103Z,5.15
2023-03-05T11:58:29.761Z,4.60
2023-03-05T12:01:00.148Z,4.65
2023-03-05T12:03:39.323Z,5.05
2023-03-05T12:06:25.058Z,6.07
2023-03-05T12:09:00.124Z,6.43
2023-03-05T12:11:31.485Z,3.15
2023-03-05T12:14:17.909Z,2.45
2023-03-05T12:17:18.546Z,5.13
2023-03-05T12:20:01.964Z,8.48
2023-03-05T12:22:39.683Z,3.50
2023-03-05T12:25:44.713Z,3.00
2023-03-05T12:28:36.435Z,5.68
2023-03-05T12:31:08.722Z,4.45
2023-03-05T12:33:43.478Z,6.45
2023-03-05T12:36:21.718Z,5.00
2023-03-05T12:38:55.180Z,5.75
2023-03-05T12:41:24.956Z,5.75
2023-03-05T12:44:07.289Z,6.97
2023-03-05T12:46:40.695Z,5.63
2023-03-05T12:49:18.088Z,6.45
2023-03-05T12:51:48.498Z,8.60
2023-03-05T12:54:30.565Z,6.57
2023-03-05T12:57:06.347Z,10.23
2023-03-05T12:59:46.251Z,7.28
2023-03-05T13:02:38.701Z,9.25
2023-03-05T13:05:27.403Z,8.48
2023-03-05T13:08:15.952Z,9.20
2023-03-05T13:11:21.612Z,8.63
2023-03-05T13:13:50.554Z,7.45
2023-03-05T13:16:22.610Z,9.35
2023-03-05T13:18:58.059Z,10.90
2023-03-05T13:22:37.524Z,10.68
2023-03-05T13:25:20.685Z,5.53
2023-03-05T13:27:49.146Z,6.45
2023-03-05T13:30:29.538Z,5.03
2023-03-05T13:33:28.378Z,10.30
2023-03-05T13:35:57.813Z,9.18
2023-03-05T13:38:45.564Z,14.43
2023-03-05T13:41:55.014Z,7.38
2023-03-05T13:44:23.970Z,3.67
2023-03-05T13:46:53.169Z,5.40
2023-03-05T13:50:39.804Z,13.07
2023-03-05T13:53:19.466Z,11.10
2023-03-05T13:55:52.216Z,8.40
2023-03-05T13:58:48.269Z,10.60
2023-03-05T14:01:44.166Z,8.50
2023-03-05T14:08:43.883Z,12.18
2023-03-05T14:11:18.638Z,8.07
2023-03-05T14:14:00.462Z,10.15
2023-03-05T14:16:32.939Z,11.80
2023-03-05T14:19:05.187Z,9.98
2023-03-05T14:21:49.023Z,9.55
2023-03-05T14:24:23.952Z,8.20
2023-03-05T14:26:58.242Z,13.05
2023-03-05T14:29:29.153Z,9.43
2023-03-05T14:32:02.955Z,8.35
2023-03-05T14:34:35.673Z,11.70
2023-03-05T14:37:26.793Z,11.77
2023-03-05T14:39:57.780Z,2.08
2023-03-05T14:42:39.229Z,3.65
2023-03-05T14:45:16.079Z,1.85
2023-03-05T14:47:45.238Z,4.38
2023-03-05T14:50:18.965Z,5.50
2023-03-05T14:52:51.810Z,6.32
2023-03-05T14:55:23.549Z,2.53
2023-03-05T15:00:27.303Z,4.38
2023-03-05T15:03:00.589Z,3.13
2023-03-05T15:05:30.582Z,2.23
2023-03-05T15:07:59.751Z,3.33
2023-03-05T15:10:28.396Z,4.28
2023-03-05T15:12:57.076Z,3.65
2023-03-05T15:15:25.651Z,3.30
2023-03-05T15:17:57.536Z,3.70
2023-03-05T15:20:32.874Z,3.25
2023-03-05T15:23:01.709Z,4.35
2023-03-05T15:25:33.596Z,3.58
2023-03-05T15:28:02.469Z,2.92
2023-03-05T15:30:33.717Z,2.38
2023-03-05T15:33:05.635Z,4.22
2023-03-05T15:35:34.436Z,12.02
2023-03-05T15:38:03.802Z,27.35
2023-03-05T15:40:33.752Z,21.80
2023-03-05T15:43:02.656Z,6.47
2023-03-05T15:45:31.560Z,8.65
2023-03-05T15:48:00.373Z,5.80
2023-03-05T15:50:29.120Z,4.75
2023-03-05T15:52:58.360Z,6.07
2023-03-05T15:55:26.918Z,6.65
2023-03-05T15:57:55.818Z,6.03
2023-03-05T16:00:29.770Z,9.65
2023-03-05T16:02:59.189Z,6.78
2023-03-05T16:05:27.886Z,7.85
2023-03-05T16:07:56.901Z,12.65
2023-03-05T16:10:28.429Z,34.75
2023-03-05T16:13:04.838Z,20.35
2023-03-05T16:15:35.295Z,19.23
2023-03-05T16:18:08.126Z,22.50
2023-03-05T16:20:36.466Z,17.13
2023-03-05T16:23:06.971Z,26.70
2023-03-05T16:25:37.443Z,24.63
2023-03-05T16:28:06.518Z,19.58
2023-03-05T16:30:37.358Z,20.52
2023-03-05T16:33:08.626Z,22.27
2023-03-05T16:35:38.383Z,24.58
2023-03-05T16:38:35.216Z,21.60
2023-03-05T16:41:08.747Z,23.17
2023-03-05T16:43:37.832Z,15.32
2023-03-05T16:46:06.215Z,14.55
2023-03-05T16:48:35.973Z,14.15
2023-03-05T16:51:05.813Z,18.30
2023-03-05T16:53:35.077Z,17.13
2023-03-05T16:56:09.350Z,22.63
2023-03-05T16:58:40.813Z,30.38
2023-03-05T17:01:23.868Z,21.65
2023-03-05T17:03:53.783Z,21.90
2023-03-05T17:06:24.560Z,13.23
2023-03-05T17:08:54.714Z,11.10
2023-03-05T17:11:51.871Z,10.18
2023-03-05T17:15:12.276Z,8.75
2023-03-05T17:17:40.938Z,11.93
2023-03-05T17:20:13.999Z,10.55
2023-03-05T17:22:42.717Z,8.98
2023-03-05T17:25:14.345Z,11.23
2023-03-05T17:27:46.591Z,13.07
2023-03-05T17:30:16.866Z,12.48
2023-03-05T17:32:47.376Z,18.10
2023-03-05T17:35:22.168Z,15.65
2023-03-05T17:37:55.659Z,15.93
2023-03-05T17:40:32.784Z,17.23
2023-03-05T17:43:03.773Z,13.75
2023-03-05T17:45:33.352Z,19.65
2023-03-05T17:48:06.063Z,18.63
2023-03-05T17:50:38.602Z,17.23
2023-03-05T17:53:07.644Z,13.77
2023-03-05T17:55:39.820Z,13.75
2023-03-05T17:58:09.156Z,13.38
2023-03-05T18:00:42.141Z,12.52
2023-03-05T18:03:10.738Z,13.75
2023-03-05T18:05:41.070Z,14.55
2023-03-05T18:08:14.363Z,14.80
2023-03-05T18:10:59.200Z,14.48
2023-03-05T18:13:34.953Z,15.38
2023-03-05T18:16:06.249Z,21.13
2023-03-05T18:18:44.785Z,20.88
2023-03-05T18:21:19.465Z,23.00
2023-03-05T18:23:48.473Z,27.60
2023-03-05T18:26:22.686Z,37.72
2023-03-05T18:29:02.015Z,40.40
2023-03-05T18:36:24.753Z,29.70
2023-03-05T18:39:14.422Z,31.23
2023-03-05T18:46:13.786Z,29.30
2023-03-05T18:49:30.408Z,21.55
2023-03-05T18:53:03.912Z,25.02
2023-03-05T18:55:54.015Z,23.13
2023-03-05T18:58:26.280Z,24.73
2023-03-05T19:03:25.972Z,15.82
2023-03-05T19:05:54.669Z,16.85
2023-03-05T19:08:23.372Z,20.83
2023-03-05T19:11:18.833Z,28.10
2023-03-05T19:13:52.331Z,29.85
2023-03-05T19:20:35.296Z,47.05
2023-03-05T19:27:21.823Z,25.48
2023-03-05T19:30:43.743Z,35.83
2023-03-05T19:33:16.234Z,31.48
2023-03-05T19:35:45.285Z,29.85
2023-03-05T19:38:14.153Z,35.47
2023-03-05T19:40:44.425Z,32.92
2023-03-05T19:43:14.567Z,49.72
2023-03-05T19:45:43.648Z,43.38
2023-03-05T19:48:43.047Z,55.53
2023-03-05T19:52:01.486Z,51.30
2023-03-05T19:55:04.722Z,62.97
2023-03-05T19:57:53.801Z,63.85
2023-03-05T20:03:46.948Z,38.50
2023-03-05T20:06:31.845Z,90.32
2023-03-05T20:09:11.863Z,57.17
2023-03-05T20:12:09.285Z,35.67
2023-03-05T22:22:34.788Z,28.13
2023-03-05T22:28:53.732Z,21.25
2023-03-05T22:31:27.126Z,29.35
2023-03-05T22:34:14.896Z,27.35
2023-03-05T22:36:45.680Z,24.27
2023-03-05T22:39:22.608Z,19.23
2023-03-05T22:42:03.317Z,19.38
2023-03-05T22:44:53.612Z,18.63
